createdAt,value
2022-08-28T00:04:04.023Z,35.96
2022-08-28T00:10:33.193Z,35.78
2022-08-28T00:17:18.137Z,35.52
2022-08-28T00:23:43.538Z,35.8
2022-08-28T00:30:07.114Z,35.9
2022-08-28T00:36:43.838Z,35.95
2022-08-28T00:43:12.048Z,35.94
2022-08-28T00:49:48.047Z,35.98
2022-08-28T00:56:42.049Z,35.96
2022-08-28T01:03:26.454Z,36.01
2022-08-28T01:09:53.068Z,36.01
2022-08-28T01:16:40.235Z,35.96
2022-08-28T01:23:42.328Z,35.99
2022-08-28T01:30:24.063Z,35.8
2022-08-28T01:37:04.263Z,35.92
2022-08-28T01:43:44.078Z,36.03
2022-08-28T01:50:31.468Z,36.08
2022-08-28T01:57:08.046Z,36.05
2022-08-28T02:03:39.469Z,36.03
2022-08-28T02:10:13.128Z,36.07
2022-08-28T02:16:37.100Z,36.05
2022-08-28T02:23:05.380Z,36.07
2022-08-28T02:29:35.491Z,36.09
2022-08-28T02:36:25.345Z,36
2022-08-28T02:42:52.865Z,36.03
2022-08-28T02:49:21.110Z,36.04
2022-08-28T02:55:56.454Z,36.06
2022-08-28T03:02:28.073Z,36.04
2022-08-28T03:08:55.071Z,36.08
2022-08-28T03:15:27.908Z,36.1
2022-08-28T03:22:01.189Z,36.02
2022-08-28T03:28:33.271Z,36.05
2022-08-28T03:34:59.969Z,35.86
2022-08-28T03:41:28.369Z,36.02
2022-08-28T03:48:00.618Z,35.75
2022-08-28T03:54:33.316Z,35.82
2022-08-28T04:01:20.264Z,36.04
2022-08-28T04:07:47.189Z,35.99
2022-08-28T04:14:11.080Z,36.01
2022-08-28T04:20:37.076Z,36.04
2022-08-28T04:27:10.987Z,36.04
2022-08-28T04:33:49.276Z,36.09
2022-08-28T04:40:19.284Z,36.09
2022-08-28T04:46:59.530Z,36.03
2022-08-28T04:53:29.533Z,36.02
2022-08-28T05:00:00.031Z,35.96
2022-08-28T05:06:33.027Z,35.99
2022-08-28T05:13:19.035Z,35.96
2022-08-28T05:19:47.562Z,35.94
2022-08-28T05:26:28.391Z,36.02
2022-08-28T05:33:07.093Z,35.97
2022-08-28T05:39:42.756Z,35.96
2022-08-28T05:46:12.342Z,35.99
2022-08-28T05:52:36.009Z,35.97
2022-08-28T05:59:06.627Z,35.99
2022-08-28T06:05:47.164Z,36.05
2022-08-28T06:12:27.045Z,36
2022-08-28T06:18:56.087Z,35.96
2022-08-28T06:25:33.098Z,35.91
2022-08-28T06:32:22.803Z,35.83
2022-08-28T06:38:55.616Z,35.88
2022-08-28T06:45:29.200Z,35.72
2022-08-28T06:52:05.242Z,35.56
2022-08-28T06:58:40.266Z,35.76
2022-08-28T07:05:30.903Z,35.49
2022-08-28T07:12:03.291Z,35.57
2022-08-28T07:18:32.330Z,35.75
2022-08-28T07:24:57.255Z,35.73
2022-08-28T07:31:32.565Z,35.59
2022-08-28T07:38:15.194Z,35.4
2022-08-28T07:44:50.225Z,35.45
2022-08-28T07:51:23.231Z,35.65
2022-08-28T07:57:53.264Z,35.6
2022-08-28T08:04:16.410Z,35.55
2022-08-28T08:10:43.675Z,35.61
2022-08-28T08:17:22.075Z,35.6
2022-08-28T08:23:54.076Z,35.65
2022-08-28T08:30:31.201Z,35.67
2022-08-28T08:37:10.173Z,35.62
2022-08-28T08:43:51.283Z,35.68
2022-08-28T08:50:37.613Z,35.61
2022-08-28T08:57:49.742Z,35.72
2022-08-28T09:04:56.891Z,35.7
2022-08-28T09:12:01.561Z,35.65
2022-08-28T09:19:03.287Z,35.6
2022-08-28T09:25:41.404Z,35.65
2022-08-28T09:32:32.297Z,35.53
2022-08-28T09:39:29.249Z,35.33
2022-08-28T09:46:19.796Z,35.39
2022-08-28T09:52:59.721Z,35.39
2022-08-28T09:59:59.719Z,35.34
2022-08-28T10:07:05.495Z,35.15
2022-08-28T10:14:09.556Z,35.33
2022-08-28T10:21:07.786Z,35.41
2022-08-28T10:28:16.854Z,35.59
2022-08-28T10:35:33.278Z,35.47
2022-08-28T10:42:36.462Z,35.54
2022-08-28T10:49:43.750Z,35.43
2022-08-28T10:56:43.324Z,35.42
2022-08-28T11:03:40.365Z,35.36
2022-08-28T11:10:42.366Z,35.41
2022-08-28T11:17:31.301Z,35.53
2022-08-28T11:24:44.532Z,35.4
2022-08-28T11:31:50.331Z,35.37
2022-08-28T11:38:39.261Z,35.43
2022-08-28T11:45:24.347Z,35.42
2022-08-28T11:52:23.459Z,35.4
2022-08-28T11:59:35.836Z,35.42
2022-08-28T12:06:30.266Z,35.35
2022-08-28T12:13:20.260Z,35.38
2022-08-28T12:20:09.651Z,35.33
2022-08-28T12:27:03.367Z,35.33
2022-08-28T12:34:04.595Z,35.36
2022-08-28T12:41:01.813Z,35.39
2022-08-28T12:47:55.317Z,35.29
2022-08-28T12:54:54.528Z,35.35
2022-08-28T13:01:34.351Z,35.44
2022-08-28T13:08:26.916Z,35.45
2022-08-28T13:15:24.219Z,35.41
2022-08-28T13:22:35.827Z,35.47
2022-08-28T13:29:21.585Z,35.39
2022-08-28T13:36:10.242Z,35.2
2022-08-28T13:42:55.318Z,35.18
2022-08-28T13:49:42.371Z,35.26
2022-08-28T13:56:17.406Z,35.24
2022-08-28T14:02:45.867Z,35.25
2022-08-28T14:09:13.858Z,35.12
2022-08-28T14:15:38.969Z,34.83
2022-08-28T14:22:02.865Z,34.74
2022-08-28T14:28:26.510Z,34.73
2022-08-28T14:34:53.513Z,34.87
2022-08-28T14:41:30.129Z,34.93
2022-08-28T14:47:53.479Z,35.02
2022-08-28T14:54:20.774Z,35.07
2022-08-28T15:00:53.706Z,34.9
2022-08-28T15:07:33.973Z,34.83
2022-08-28T15:14:11.870Z,34.73
2022-08-28T15:20:46.376Z,34.8
2022-08-28T15:27:24.303Z,34.54
2022-08-28T15:33:51.902Z,34.36
2022-08-28T15:40:32.015Z,34.27
2022-08-28T15:47:12.857Z,34.14
2022-08-28T15:53:43.498Z,34.3
2022-08-28T16:00:10.862Z,34.42
2022-08-28T16:07:00.334Z,34.38
2022-08-28T16:13:25.404Z,34.56
2022-08-28T16:19:50.328Z,34.61
2022-08-28T16:26:17.523Z,34.53
2022-08-28T16:32:50.557Z,34.52
2022-08-28T16:39:24.404Z,34.7
2022-08-28T16:45:51.918Z,34.65
2022-08-28T16:52:14.586Z,34.96
2022-08-28T16:58:39.934Z,35.35
2022-08-28T17:05:10.356Z,35.63
2022-08-28T17:11:39.009Z,35.83
2022-08-28T17:18:13.750Z,35.94
2022-08-28T17:24:38.509Z,35.85
2022-08-28T17:31:02.658Z,36.05
2022-08-28T17:37:40.601Z,36.11
2022-08-28T17:44:13.532Z,36.06
2022-08-28T17:50:41.872Z,36.15
2022-08-28T17:57:19.528Z,35.95
2022-08-28T18:03:54.272Z,36.05
2022-08-28T18:10:24.984Z,35.95
2022-08-28T18:16:53.817Z,35.96
2022-08-28T18:23:26.538Z,36.03
2022-08-28T18:30:03.609Z,35.97
2022-08-28T18:36:39.422Z,36.12
2022-08-28T18:43:09.559Z,36.23
2022-08-28T18:49:41.836Z,36.43
2022-08-28T18:56:14.126Z,36.42
2022-08-28T19:02:42.235Z,36.61
2022-08-28T19:09:05.749Z,36.65
2022-08-28T19:15:30.754Z,36.5
2022-08-28T19:22:09.787Z,36.42
2022-08-28T19:28:40.481Z,36.54
2022-08-28T19:35:07.618Z,36.51
2022-08-28T19:41:37.612Z,36.64
2022-08-28T19:48:06.179Z,36.72
2022-08-28T19:54:31.633Z,36.8
2022-08-28T20:01:07.445Z,36.74
2022-08-28T20:07:37.051Z,36.81
2022-08-28T20:14:09.404Z,36.8
2022-08-28T20:20:38.753Z,36.76
2022-08-28T20:27:06.547Z,36.77
2022-08-28T20:33:34.698Z,36.82
2022-08-28T20:40:09.882Z,36.85
2022-08-28T20:46:55.584Z,36.83
2022-08-28T20:53:31.265Z,36.83
2022-08-28T21:00:14.182Z,36.86
2022-08-28T21:06:44.059Z,36.76
2022-08-28T21:13:25.666Z,36.68
2022-08-28T21:20:04.950Z,36.58
2022-08-28T21:26:34.718Z,36.38
2022-08-28T21:33:04.614Z,36.21
2022-08-28T21:39:43.556Z,35.91
2022-08-28T21:46:18.659Z,36.06
2022-08-28T21:52:45.737Z,36.07
2022-08-28T21:59:23.449Z,36.06
2022-08-28T22:06:00.103Z,35.99
2022-08-28T22:12:36.090Z,35.97
2022-08-28T22:19:07.694Z,35.77
2022-08-28T22:25:40.771Z,35.5
2022-08-28T22:32:11.498Z,35.4
2022-08-28T22:38:49.715Z,35.44
2022-08-28T22:45:29.964Z,35.6
2022-08-28T22:52:10.845Z,35.47
2022-08-28T22:58:38.040Z,35.66
2022-08-28T23:05:12.461Z,35.61
2022-08-28T23:11:38.303Z,35.84
2022-08-28T23:18:08.380Z,35.81
2022-08-28T23:24:36.522Z,35.89
2022-08-28T23:31:07.731Z,35.86
2022-08-28T23:37:37.941Z,35.8
2022-08-28T23:44:09.730Z,35.66
2022-08-28T23:50:41.708Z,35.8
2022-08-28T23:57:11.259Z,35.85
